| time (UTC) | temp C | wind direction | speed KPH | gust KPH | rain 1hr cm | rain 24hr cm | rain mn cm | humidity % | barometer mb |
| 20260508152359 | 12 | 349 | 3.2 | 4.8 | 0.13 | 0.36 | 0.36 | 82 | 1016.0 |
| 20260508151859 | 12 | 9 | 3.2 | 8.0 | 0.13 | 0.36 | 0.36 | 82 | 1016.0 |
| 20260508150900 | 13 | 26 | 1.6 | 4.8 | 0.13 | 0.36 | 0.36 | 80 | 1016.2 |
| 20260508150358 | 14 | 34 | 1.6 | 3.2 | 0.13 | 0.36 | 0.36 | 71 | 1016.2 |
| 20260508145858 | 14 | 173 | 0.0 | 3.2 | 0.05 | 0.30 | 0.30 | 70 | 1016.1 |
| 20260508144359 | 15 | 23 | 3.2 | 8.0 | 0.00 | 0.23 | 0.23 | 66 | 1015.9 |
| 20260508143859 | 15 | 131 | 1.6 | 3.2 | 0.00 | 0.23 | 0.23 | 68 | 1016.0 |
| 20260508143358 | 15 | 131 | 1.6 | 4.8 | 0.00 | 0.23 | 0.23 | 65 | 1016.0 |
| 20260508142859 | 15 | 102 | 1.6 | 4.8 | 0.00 | 0.23 | 0.23 | 66 | 1016.0 |
| 20260508142358 | 15 | 61 | 0.0 | 3.2 | 0.00 | 0.23 | 0.23 | 67 | 1016.0 |
| 20260508141859 | 15 | 61 | 0.0 | 3.2 | 0.00 | 0.23 | 0.23 | 69 | 1016.0 |
| 20260508141358 | 15 | 61 | 0.0 | 1.6 | 0.00 | 0.23 | 0.23 | 69 | 1016.1 |
| 20260508140859 | 15 | 61 | 0.0 | 1.6 | 0.00 | 0.23 | 0.23 | 67 | 1016.1 |
| 20260508140359 | 15 | 61 | 1.6 | 3.2 | 0.00 | 0.23 | 0.23 | 71 | 1016.1 |
| 20260508135859 | 14 | 72 | 0.0 | 4.8 | 0.00 | 0.23 | 0.23 | 68 | 1016.1 |
| 20260508135400 | 14 | 103 | 1.6 | 4.8 | 0.00 | 0.23 | 0.23 | 69 | 1016.2 |
| 20260508133859 | 14 | 134 | 0.0 | 1.6 | 0.00 | 0.23 | 0.23 | 71 | 1016.2 |
| 20260508133358 | 14 | 134 | 1.6 | 1.6 | 0.00 | 0.23 | 0.23 | 69 | 1016.3 |
| 20260508132358 | 14 | 134 | 1.6 | 4.8 | 0.00 | 0.23 | 0.23 | 66 | 1016.2 |
| 20260508131858 | 14 | 90 | 3.2 | 8.0 | 0.00 | 0.23 | 0.23 | 71 | 1016.2 |
| 20260508131400 | 14 | 71 | 4.8 | 8.0 | 0.00 | 0.23 | 0.23 | 71 | 1016.2 |
| 20260508130859 | 14 | 107 | 1.6 | 4.8 | 0.00 | 0.23 | 0.23 | 70 | 1016.3 |
| 20260508130358 | 14 | 92 | 1.6 | 4.8 | 0.00 | 0.23 | 0.23 | 73 | 1016.4 |
| 20260508125358 | 13 | 92 | 3.2 | 8.0 | 0.00 | 0.23 | 0.23 | 75 | 1016.4 |
| 20260508124858 | 13 | 96 | 1.6 | 3.2 | 0.00 | 0.23 | 0.23 | 76 | 1016.4 |
| 20260508124359 | 13 | 96 | 1.6 | 3.2 | 0.05 | 0.23 | 0.23 | 77 | 1016.4 |
| 20260508123858 | 13 | 97 | 0.0 | 3.2 | 0.05 | 0.23 | 0.23 | 82 | 1016.5 |
| 20260508123358 | 13 | 86 | 1.6 | 4.8 | 0.08 | 0.23 | 0.23 | 83 | 1016.4 |
| 20260508122859 | 12 | 86 | 1.6 | 4.8 | 0.08 | 0.23 | 0.23 | 82 | 1016.4 |
| 20260508122358 | 12 | 96 | 3.2 | 4.8 | 0.13 | 0.23 | 0.23 | 80 | 1016.5 |
| 20260508121859 | 12 | 107 | 1.6 | 4.8 | 0.20 | 0.23 | 0.23 | 82 | 1016.6 |
| 20260508121359 | 12 | 62 | 1.6 | 3.2 | 0.23 | 0.23 | 0.23 | 84 | 1016.5 |
| 20260508120358 | 12 | 57 | 1.6 | 4.8 | 0.23 | 0.23 | 0.23 | 86 | 1016.5 |
| 20260508115900 | 12 | 67 | 1.6 | 3.2 | 0.23 | 0.23 | 0.23 | 88 | 1016.5 |
| 20260508115400 | 12 | 350 | 1.6 | 3.2 | 0.23 | 0.23 | 0.23 | 89 | 1016.6 |
| 20260508114359 | 11 | 78 | 1.6 | 3.2 | 0.20 | 0.20 | 0.20 | 85 | 1016.7 |
| 20260508113859 | 11 | 92 | 1.6 | 4.8 | 0.18 | 0.18 | 0.18 | 83 | 1016.7 |
| 20260508112900 | 11 | 65 | 1.6 | 4.8 | 0.15 | 0.15 | 0.15 | 79 | 1016.7 |
| 20260508112358 | 12 | 240 | 3.2 | 8.0 | 0.13 | 0.13 | 0.13 | 78 | 1016.6 |
| 20260508111858 | 12 | 203 | 4.8 | 11.3 | 0.05 | 0.05 | 0.05 | 75 | 1016.5 |
| 20260508110858 | 13 | 23 | 0.0 | 3.2 | 0.00 | 0.00 | 0.00 | 75 | 1016.3 |
| 20260508110358 | 13 | 23 | 1.6 | 3.2 | 0.00 | 0.00 | 0.00 | 74 | 1016.3 |
| 20260508105859 | 13 | 23 | 1.6 | 4.8 | 0.00 | 0.00 | 0.00 | 73 | 1016.3 |
| 20260508105358 | 13 | 23 | 1.6 | 4.8 | 0.00 | 0.00 | 0.00 | 73 | 1016.2 |
| 20260508104858 | 13 | 348 | 3.2 | 4.8 | 0.00 | 0.00 | 0.00 | 72 | 1016.3 |
| 20260508104359 | 13 | 39 | 1.6 | 3.2 | 0.00 | 0.00 | 0.00 | 75 | 1016.3 |
| 20260508103859 | 13 | 80 | 0.0 | 4.8 | 0.00 | 0.00 | 0.00 | 75 | 1016.3 |
| 20260508103359 | 12 | 80 | 1.6 | 4.8 | 0.00 | 0.00 | 0.00 | 74 | 1016.4 |
| 20260508102858 | 12 | 80 | 1.6 | 8.0 | 0.00 | 0.00 | 0.00 | 72 | 1016.4 |
| 20260508101858 | 12 | 88 | 1.6 | 4.8 | 0.00 | 0.00 | 0.00 | 73 | 1016.4 |
| 20260508101358 | 12 | 88 | 1.6 | 3.2 | 0.00 | 0.00 | 0.00 | 72 | 1016.4 |
| 20260508100859 | 12 | 88 | 0.0 | 4.8 | 0.00 | 0.00 | 0.00 | 72 | 1016.4 |
| 20260508100359 | 12 | 88 | 3.2 | 4.8 | 0.00 | 0.00 | 0.00 | 72 | 1016.4 |
| 20260508095859 | 12 | 96 | 3.2 | 8.0 | 0.00 | 0.00 | 0.00 | 72 | 1016.3 |
| 20260508095358 | 12 | 91 | 3.2 | 8.0 | 0.00 | 0.00 | 0.00 | 72 | 1016.3 |
| 20260508094858 | 12 | 90 | 4.8 | 8.0 | 0.00 | 0.00 | 0.00 | 72 | 1016.3 |
| 20260508094358 | 12 | 87 | 3.2 | 8.0 | 0.00 | 0.00 | 0.00 | 73 | 1016.3 |
| 20260508093859 | 12 | 92 | 4.8 | 9.7 | 0.00 | 0.00 | 0.00 | 73 | 1016.3 |
| 20260508093359 | 12 | 99 | 3.2 | 8.0 | 0.00 | 0.00 | 0.00 | 74 | 1016.3 |
| 20260508092859 | 12 | 83 | 8.0 | 12.9 | 0.00 | 0.00 | 0.00 | 72 | 1016.3 |
| 20260508092358 | 13 | 109 | 4.8 | 11.3 | 0.00 | 0.00 | 0.00 | 72 | 1016.2 |
| 20260508091859 | 12 | 110 | 8.0 | 11.3 | 0.00 | 0.00 | 0.00 | 73 | 1016.2 |
| 20260508091359 | 12 | 94 | 6.4 | 12.9 | 0.00 | 0.00 | 0.00 | 73 | 1016.1 |
| 20260508090900 | 12 | 135 | 3.2 | 9.7 | 0.00 | 0.00 | 0.00 | 73 | 1016.2 |
| 20260508085858 | 12 | 137 | 3.2 | 4.8 | 0.00 | 0.00 | 0.00 | 73 | 1016.2 |
| 20260508085358 | 12 | 100 | 3.2 | 4.8 | 0.00 | 0.00 | 0.00 | 74 | 1016.1 |
| 20260508083859 | 11 | 130 | 1.6 | 3.2 | 0.00 | 0.00 | 0.00 | 76 | 1016.2 |
| 20260508083358 | 11 | 90 | 1.6 | 4.8 | 0.00 | 0.00 | 0.00 | 77 | 1016.2 |
| 20260508082858 | 11 | 138 | 1.6 | 4.8 | 0.00 | 0.00 | 0.00 | 77 | 1016.2 |
| 20260508082359 | 11 | 142 | 1.6 | 3.2 | 0.00 | 0.00 | 0.00 | 78 | 1016.2 |
| 20260508081359 | 11 | 177 | 1.6 | 1.6 | 0.00 | 0.00 | 0.00 | 79 | 1016.2 |
| 20260508080858 | 11 | 177 | 1.6 | 3.2 | 0.00 | 0.00 | 0.00 | 79 | 1016.2 |
| 20260508075358 | 10 | 177 | 0.0 | 1.6 | 0.00 | 0.00 | 0.00 | 78 | 1016.1 |
| 20260508074858 | 10 | 177 | 1.6 | 1.6 | 0.00 | 0.00 | 0.00 | 79 | 1016.1 |
| 20260508072858 | 10 | 63 | 0.0 | 1.6 | 0.00 | 0.00 | 0.00 | 80 | 1016.0 |
| 20260508071858 | 10 | 63 | 0.0 | 0.0 | 0.00 | 0.00 | 0.00 | 80 | 1015.9 |
| 20260508070858 | 9 | 63 | 0.0 | 3.2 | 0.00 | 0.00 | 0.00 | 82 | 1015.8 |
| 20260508070358 | 9 | 63 | 0.0 | 3.2 | 0.00 | 0.00 | 0.00 | 82 | 1015.7 |
| 20260508065859 | 9 | 63 | 0.0 | 3.2 | 0.00 | 0.00 | 0.00 | 82 | 1015.6 |
| 20260508065357 | 8 | 63 | 0.0 | 3.2 | 0.00 | 0.00 | 0.00 | 82 | 1015.6 |
| 20260508064858 | 8 | 63 | 0.0 | 3.2 | 0.00 | 0.00 | 0.00 | 85 | 1015.6 |
| 20260508064359 | 8 | 63 | 0.0 | 0.0 | 0.00 | 0.00 | 0.00 | 85 | 1015.6 |
| 20260508062358 | 8 | 63 | 0.0 | 3.2 | 0.00 | 0.00 | 0.00 | 84 | 1015.4 |
| 20260508061858 | 8 | 63 | 0.0 | 3.2 | 0.00 | 0.00 | 0.00 | 85 | 1015.3 |
| 20260508061358 | 8 | 63 | 1.6 | 3.2 | 0.00 | 0.00 | 0.00 | 85 | 1015.3 |
| 20260508060858 | 8 | 63 | 0.0 | 1.6 | 0.00 | 0.00 | 0.00 | 85 | 1015.4 |
| 20260508060359 | 8 | 63 | 0.0 | 3.2 | 0.00 | 0.00 | 0.00 | 85 | 1015.4 |
| 20260508055858 | 8 | 63 | 0.0 | 3.2 | 0.00 | 0.00 | 0.00 | 85 | 1015.3 |
| 20260508055358 | 8 | 45 | 0.0 | 3.2 | 0.00 | 0.00 | 0.00 | 85 | 1015.2 |
| 20260508054859 | 8 | 38 | 0.0 | 3.2 | 0.00 | 0.00 | 0.00 | 85 | 1015.1 |
| 20260508054358 | 8 | 38 | 0.0 | 1.6 | 0.00 | 0.00 | 0.00 | 85 | 1015.2 |
| 20260508053858 | 7 | 38 | 1.6 | 3.2 | 0.00 | 0.00 | 0.00 | 85 | 1015.1 |
| 20260508053358 | 7 | 38 | 0.0 | 3.2 | 0.00 | 0.00 | 0.00 | 85 | 1015.2 |
| 20260508052358 | 7 | 38 | 1.6 | 3.2 | 0.00 | 0.00 | 0.00 | 85 | 1015.0 |
| 20260508051859 | 7 | 38 | 1.6 | 3.2 | 0.00 | 0.00 | 0.00 | 85 | 1015.0 |
| 20260508050358 | 7 | 39 | 1.6 | 3.2 | 0.00 | 0.00 | 0.00 | 85 | 1014.9 |
| 20260508045858 | 7 | 39 | 1.6 | 3.2 | 0.00 | 0.00 | 0.00 | 85 | 1014.9 |
| 20260508045358 | 7 | 63 | 1.6 | 3.2 | 0.00 | 0.00 | 0.00 | 85 | 1014.9 |
| 20260508044858 | 7 | 31 | 1.6 | 3.2 | 0.00 | 0.00 | 0.00 | 85 | 1014.9 |
| 20260508044358 | 7 | 31 | 1.6 | 4.8 | 0.00 | 0.00 | 0.00 | 85 | 1014.9 |
| 20260508043858 | 7 | 38 | 1.6 | 4.8 | 0.00 | 0.00 | 0.00 | 85 | 1014.8 |
| 20260508042858 | 7 | 39 | 1.6 | 3.2 | 0.00 | 0.00 | 0.00 | 85 | 1014.8 |
| 20260508042359 | 7 | 39 | 1.6 | 3.2 | 0.00 | 0.00 | 0.00 | 84 | 1014.8 |
| 20260508041859 | 7 | 39 | 1.6 | 4.8 | 0.00 | 0.00 | 0.00 | 84 | 1014.8 |
| 20260508041358 | 7 | 39 | 1.6 | 3.2 | 0.00 | 0.00 | 0.00 | 84 | 1014.8 |
| 20260508040859 | 7 | 38 | 1.6 | 3.2 | 0.00 | 0.00 | 0.00 | 85 | 1014.8 |
| 20260508035858 | 7 | 80 | 3.2 | 4.8 | 0.00 | 0.00 | 0.00 | 84 | 1014.7 |
| 20260508035357 | 7 | 92 | 1.6 | 4.8 | 0.00 | 0.00 | 0.00 | 84 | 1014.7 |
| 20260508034858 | 7 | 35 | 1.6 | 1.6 | 0.00 | 0.00 | 0.00 | 84 | 1014.7 |
| 20260508033858 | 7 | 34 | 1.6 | 3.2 | 0.00 | 0.00 | 0.00 | 83 | 1014.7 |
| 20260508033358 | 7 | 95 | 1.6 | 3.2 | 0.00 | 0.00 | 0.00 | 83 | 1014.7 |
| 20260508032858 | 7 | 95 | 3.2 | 4.8 | 0.00 | 0.00 | 0.00 | 83 | 1014.7 |
| 20260508032358 | 7 | 95 | 1.6 | 3.2 | 0.00 | 0.00 | 0.00 | 83 | 1014.7 |
| 20260508031858 | 7 | 95 | 1.6 | 3.2 | 0.00 | 0.00 | 0.00 | 82 | 1014.6 |
| 20260508030858 | 8 | 95 | 1.6 | 4.8 | 0.00 | 0.00 | 0.00 | 82 | 1014.7 |
| 20260508030359 | 8 | 30 | 1.6 | 3.2 | 0.00 | 0.00 | 0.00 | 82 | 1014.6 |
| 20260508025859 | 8 | 30 | 1.6 | 4.8 | 0.00 | 0.00 | 0.00 | 82 | 1014.6 |
| 20260508025358 | 8 | 30 | 1.6 | 3.2 | 0.00 | 0.00 | 0.00 | 82 | 1014.5 |
| 20260508024357 | 8 | 27 | 1.6 | 3.2 | 0.00 | 0.00 | 0.00 | 81 | 1014.5 |
| 20260508023858 | 8 | 27 | 0.0 | 3.2 | 0.00 | 0.00 | 0.00 | 81 | 1014.6 |
| 20260508023358 | 8 | 27 | 1.6 | 3.2 | 0.00 | 0.00 | 0.00 | 80 | 1014.5 |
| 20260508022858 | 8 | 40 | 1.6 | 4.8 | 0.00 | 0.00 | 0.00 | 80 | 1014.4 |
| 20260508021357 | 8 | 158 | 1.6 | 3.2 | 0.00 | 0.00 | 0.00 | 80 | 1014.4 |
| 20260508020858 | 8 | 158 | 0.0 | 1.6 | 0.00 | 0.00 | 0.00 | 80 | 1014.3 |
| 20260508020358 | 8 | 158 | 1.6 | 4.8 | 0.00 | 0.00 | 0.00 | 79 | 1014.4 |
| 20260508015858 | 8 | 159 | 0.0 | 3.2 | 0.00 | 0.00 | 0.00 | 79 | 1014.4 |
| 20260508015357 | 8 | 159 | 1.6 | 4.8 | 0.00 | 0.00 | 0.00 | 80 | 1014.4 |
| 20260508014858 | 8 | 203 | 0.0 | 4.8 | 0.00 | 0.00 | 0.00 | 80 | 1014.4 |
| 20260508014359 | 8 | 205 | 3.2 | 4.8 | 0.00 | 0.00 | 0.00 | 81 | 1014.4 |
| 20260508013858 | 8 | 122 | 1.6 | 3.2 | 0.00 | 0.00 | 0.00 | 81 | 1014.5 |
| 20260508013358 | 8 | 56 | 1.6 | 3.2 | 0.00 | 0.00 | 0.00 | 81 | 1014.5 |
| 20260508012857 | 8 | 56 | 0.0 | 3.2 | 0.00 | 0.00 | 0.00 | 81 | 1014.5 |
| 20260508012358 | 8 | 56 | 1.6 | 4.8 | 0.00 | 0.00 | 0.00 | 81 | 1014.5 |
| 20260508011858 | 8 | 86 | 1.6 | 4.8 | 0.00 | 0.00 | 0.00 | 81 | 1014.6 |
| 20260508011359 | 8 | 99 | 1.6 | 3.2 | 0.00 | 0.00 | 0.00 | 81 | 1014.5 |
| 20260508010857 | 8 | 150 | 1.6 | 3.2 | 0.00 | 0.00 | 0.00 | 80 | 1014.5 |
| 20260508010400 | 8 | 150 | 1.6 | 1.6 | 0.00 | 0.00 | 0.00 | 80 | 1014.5 |
| 20260508005358 | 9 | 150 | 1.6 | 3.2 | 0.00 | 0.00 | 0.00 | 79 | 1014.6 |
| 20260508004858 | 9 | 150 | 3.2 | 4.8 | 0.00 | 0.00 | 0.00 | 80 | 1014.6 |
| 20260508004359 | 9 | 150 | 1.6 | 4.8 | 0.00 | 0.00 | 0.00 | 79 | 1014.6 |
| 20260508003858 | 9 | 150 | 1.6 | 3.2 | 0.00 | 0.00 | 0.00 | 80 | 1014.6 |
| 20260508003358 | 9 | 150 | 3.2 | 4.8 | 0.00 | 0.00 | 0.00 | 80 | 1014.6 |
| 20260508002858 | 9 | 150 | 1.6 | 3.2 | 0.00 | 0.00 | 0.00 | 79 | 1014.6 |
| 20260508002358 | 9 | 150 | 1.6 | 3.2 | 0.00 | 0.00 | 0.00 | 79 | 1014.7 |
| 20260508001858 | 10 | 150 | 1.6 | 20.9 | 0.00 | 0.00 | 0.00 | 79 | 1014.7 |
| 20260508001357 | 10 | 150 | 1.6 | 3.2 | 0.00 | 0.00 | 0.00 | 77 | 1014.7 |
| 20260508000858 | 10 | 150 | 1.6 | 1.6 | 0.00 | 0.00 | 0.00 | 77 | 1014.6 |
| 20260508000357 | 10 | 150 | 0.0 | 3.2 | 0.00 | 0.00 | 0.00 | 77 | 1014.6 |
| 20260507235357 | 10 | 134 | 3.2 | 4.8 | 0.00 | 0.00 | 0.00 | 76 | 1014.6 |
| 20260507234858 | 10 | 143 | 3.2 | 8.0 | 0.00 | 0.00 | 0.00 | 76 | 1014.5 |
| 20260507234359 | 10 | 103 | 3.2 | 8.0 | 0.00 | 0.00 | 0.00 | 76 | 1014.5 |
| 20260507233859 | 10 | 147 | 3.2 | 8.0 | 0.00 | 0.00 | 0.00 | 75 | 1014.6 |
| 20260507233358 | 10 | 109 | 4.8 | 11.3 | 0.00 | 0.00 | 0.00 | 75 | 1014.6 |
| 20260507232858 | 10 | 103 | 1.6 | 8.0 | 0.00 | 0.00 | 0.00 | 75 | 1014.6 |
| 20260507232358 | 10 | 104 | 3.2 | 8.0 | 0.00 | 0.00 | 0.00 | 75 | 1014.6 |
| 20260507230938 | 10 | 103 | 6.4 | 14.5 | 0.00 | 0.00 | 0.00 | 75 | 1014.5 |
| 20260507230357 | 10 | 101 | 4.8 | 12.9 | 0.00 | 0.00 | 0.00 | 75 | 1014.6 |
| 20260507225858 | 10 | 110 | 6.4 | 11.3 | 0.00 | 0.00 | 0.00 | 76 | 1014.5 |
| 20260507225358 | 10 | 117 | 4.8 | 11.3 | 0.00 | 0.00 | 0.00 | 77 | 1014.6 |
| 20260507224858 | 10 | 95 | 3.2 | 8.0 | 0.00 | 0.00 | 0.00 | 78 | 1014.5 |
| 20260507224358 | 10 | 105 | 1.6 | 4.8 | 0.00 | 0.00 | 0.00 | 78 | 1014.5 |
| 20260507223858 | 10 | 100 | 3.2 | 4.8 | 0.00 | 0.00 | 0.00 | 78 | 1014.4 |
| 20260507223358 | 10 | 117 | 3.2 | 4.8 | 0.00 | 0.00 | 0.00 | 77 | 1014.5 |
| 20260507222859 | 10 | 80 | 3.2 | 8.0 | 0.00 | 0.00 | 0.00 | 77 | 1014.5 |
| 20260507222357 | 10 | 93 | 3.2 | 8.0 | 0.00 | 0.00 | 0.00 | 75 | 1014.4 |
| 20260507221858 | 10 | 98 | 3.2 | 8.0 | 0.00 | 0.00 | 0.00 | 74 | 1014.5 |
| 20260507221358 | 10 | 99 | 3.2 | 8.0 | 0.00 | 0.00 | 0.00 | 74 | 1014.5 |
| 20260507220858 | 10 | 99 | 4.8 | 9.7 | 0.00 | 0.00 | 0.00 | 73 | 1014.5 |
| 20260507220357 | 10 | 101 | 4.8 | 11.3 | 0.00 | 0.00 | 0.00 | 72 | 1014.5 |
| 20260507215858 | 11 | 102 | 8.0 | 14.5 | 0.00 | 0.00 | 0.00 | 71 | 1014.5 |
| 20260507215358 | 11 | 115 | 8.0 | 14.5 | 0.00 | 0.00 | 0.00 | 70 | 1014.5 |
| 20260507214858 | 11 | 127 | 9.7 | 16.1 | 0.00 | 0.00 | 0.00 | 69 | 1014.6 |
| 20260507214358 | 11 | 110 | 8.0 | 16.1 | 0.00 | 0.00 | 0.00 | 69 | 1014.6 |
| 20260507213358 | 11 | 158 | 3.2 | 8.0 | 0.00 | 0.00 | 0.00 | 70 | 1014.6 |
| 20260507212358 | 11 | 138 | 3.2 | 4.8 | 0.00 | 0.00 | 0.00 | 68 | 1014.6 |
| 20260507211858 | 11 | 142 | 3.2 | 8.0 | 0.00 | 0.00 | 0.00 | 68 | 1014.5 |
| 20260507210857 | 11 | 130 | 4.8 | 11.3 | 0.00 | 0.00 | 0.00 | 67 | 1014.4 |
| 20260507210358 | 11 | 143 | 6.4 | 11.3 | 0.00 | 0.00 | 0.00 | 66 | 1014.4 |
| 20260507205858 | 11 | 147 | 8.0 | 14.5 | 0.00 | 0.00 | 0.00 | 65 | 1014.4 |
| 20260507205357 | 11 | 125 | 6.4 | 16.1 | 0.00 | 0.00 | 0.00 | 65 | 1014.3 |
| 20260507204358 | 11 | 142 | 9.7 | 16.1 | 0.00 | 0.00 | 0.00 | 64 | 1014.2 |
| 20260507203858 | 11 | 125 | 9.7 | 16.1 | 0.00 | 0.00 | 0.00 | 64 | 1014.2 |
| 20260507202858 | 11 | 124 | 8.0 | 14.5 | 0.00 | 0.00 | 0.00 | 63 | 1014.2 |
| 20260507202357 | 12 | 125 | 6.4 | 12.9 | 0.00 | 0.00 | 0.00 | 63 | 1014.1 |
| 20260507201858 | 12 | 114 | 8.0 | 19.3 | 0.00 | 0.00 | 0.00 | 63 | 1014.0 |
| 20260507201357 | 12 | 115 | 6.4 | 12.9 | 0.00 | 0.00 | 0.00 | 63 | 1014.0 |
| 20260507200859 | 12 | 133 | 9.7 | 16.1 | 0.00 | 0.00 | 0.00 | 63 | 1013.9 |
| 20260507200357 | 12 | 133 | 8.0 | 12.9 | 0.00 | 0.00 | 0.00 | 62 | 1013.9 |
| 20260507195858 | 12 | 128 | 9.7 | 14.5 | 0.00 | 0.00 | 0.00 | 62 | 1013.9 |
| 20260507195357 | 12 | 138 | 8.0 | 16.1 | 0.00 | 0.00 | 0.00 | 62 | 1013.9 |
| 20260507194858 | 12 | 143 | 8.0 | 16.1 | 0.00 | 0.00 | 0.00 | 62 | 1013.9 |
| 20260507193358 | 12 | 135 | 8.0 | 14.5 | 0.00 | 0.00 | 0.00 | 62 | 1013.8 |
| 20260507192858 | 12 | 114 | 8.0 | 14.5 | 0.00 | 0.00 | 0.00 | 62 | 1013.7 |
| 20260507192359 | 12 | 136 | 8.0 | 19.3 | 0.00 | 0.00 | 0.00 | 61 | 1013.7 |
| 20260507191858 | 12 | 116 | 8.0 | 14.5 | 0.00 | 0.00 | 0.00 | 62 | 1013.6 |
| 20260507191358 | 12 | 108 | 6.4 | 16.1 | 0.00 | 0.00 | 0.00 | 61 | 1013.6 |
| 20260507190858 | 12 | 121 | 4.8 | 16.1 | 0.00 | 0.00 | 0.00 | 61 | 1013.5 |
| 20260507190358 | 12 | 141 | 8.0 | 14.5 | 0.00 | 0.00 | 0.00 | 61 | 1013.5 |
| 20260507185858 | 12 | 116 | 6.4 | 20.9 | 0.00 | 0.00 | 0.00 | 61 | 1013.5 |
| 20260507185357 | 12 | 106 | 6.4 | 19.3 | 0.00 | 0.00 | 0.00 | 61 | 1013.5 |
| 20260507184858 | 12 | 104 | 6.4 | 12.9 | 0.00 | 0.00 | 0.00 | 61 | 1013.5 |
| 20260507184357 | 12 | 96 | 8.0 | 14.5 | 0.00 | 0.00 | 0.00 | 60 | 1013.4 |
| 20260507183857 | 12 | 102 | 6.4 | 14.5 | 0.00 | 0.00 | 0.00 | 61 | 1013.4 |
| 20260507183358 | 12 | 106 | 6.4 | 11.3 | 0.00 | 0.00 | 0.00 | 61 | 1013.4 |
| 20260507182858 | 12 | 99 | 4.8 | 11.3 | 0.00 | 0.00 | 0.00 | 61 | 1013.4 |
| 20260507182358 | 12 | 94 | 8.0 | 11.3 | 0.00 | 0.00 | 0.00 | 60 | 1013.4 |
| 20260507181358 | 12 | 99 | 4.8 | 11.3 | 0.00 | 0.00 | 0.00 | 60 | 1013.3 |
| 20260507180357 | 12 | 112 | 4.8 | 9.7 | 0.00 | 0.00 | 0.00 | 61 | 1013.3 |
| 20260507175858 | 12 | 105 | 6.4 | 19.3 | 0.00 | 0.00 | 0.00 | 60 | 1013.3 |
| 20260507175357 | 12 | 95 | 4.8 | 12.9 | 0.00 | 0.00 | 0.00 | 60 | 1013.3 |
| 20260507174858 | 12 | 95 | 4.8 | 12.9 | 0.00 | 0.00 | 0.00 | 60 | 1013.3 |
| 20260507174358 | 12 | 101 | 4.8 | 11.3 | 0.00 | 0.00 | 0.00 | 60 | 1013.4 |
| 20260507173857 | 12 | 90 | 8.0 | 16.1 | 0.00 | 0.00 | 0.00 | 60 | 1013.4 |
| 20260507173358 | 12 | 101 | 8.0 | 14.5 | 0.00 | 0.00 | 0.00 | 60 | 1013.4 |
| 20260507172858 | 12 | 89 | 6.4 | 12.9 | 0.00 | 0.00 | 0.00 | 61 | 1013.4 |
| 20260507172357 | 12 | 100 | 3.2 | 11.3 | 0.00 | 0.00 | 0.00 | 61 | 1013.4 |
| 20260507171857 | 12 | 108 | 8.0 | 14.5 | 0.00 | 0.00 | 0.00 | 60 | 1013.4 |
| 20260507171357 | 12 | 109 | 4.8 | 12.9 | 0.00 | 0.00 | 0.00 | 60 | 1013.5 |
| 20260507170858 | 12 | 93 | 8.0 | 16.1 | 0.00 | 0.00 | 0.00 | 60 | 1013.4 |
| 20260507170358 | 12 | 122 | 6.4 | 12.9 | 0.00 | 0.00 | 0.00 | 60 | 1013.4 |
| 20260507165858 | 12 | 134 | 4.8 | 11.3 | 0.00 | 0.00 | 0.00 | 60 | 1013.4 |
| 20260507165357 | 13 | 139 | 8.0 | 14.5 | 0.00 | 0.00 | 0.00 | 60 | 1013.5 |
| 20260507164858 | 13 | 133 | 9.7 | 16.1 | 0.00 | 0.00 | 0.00 | 60 | 1013.5 |
| 20260507164357 | 13 | 129 | 8.0 | 16.1 | 0.00 | 0.00 | 0.00 | 59 | 1013.5 |
| 20260507163857 | 13 | 137 | 9.7 | 16.1 | 0.00 | 0.00 | 0.00 | 59 | 1013.6 |
| 20260507163357 | 13 | 110 | 8.0 | 16.1 | 0.00 | 0.00 | 0.00 | 60 | 1013.5 |
| 20260507162858 | 13 | 104 | 8.0 | 16.1 | 0.00 | 0.00 | 0.00 | 61 | 1013.6 |
| 20260507162357 | 13 | 109 | 6.4 | 12.9 | 0.00 | 0.00 | 0.00 | 61 | 1013.5 |
| 20260507161858 | 13 | 121 | 8.0 | 16.1 | 0.00 | 0.00 | 0.00 | 63 | 1013.5 |
| 20260507161357 | 12 | 103 | 9.7 | 19.3 | 0.00 | 0.00 | 0.00 | 63 | 1013.5 |
| 20260507160358 | 12 | 94 | 9.7 | 16.1 | 0.00 | 0.00 | 0.00 | 64 | 1013.5 |
| 20260507155357 | 12 | 111 | 8.0 | 14.5 | 0.00 | 0.00 | 0.00 | 64 | 1013.7 |
| 20260507154858 | 12 | 100 | 8.0 | 19.3 | 0.00 | 0.00 | 0.00 | 63 | 1013.7 |
| 20260507154358 | 12 | 100 | 9.7 | 19.3 | 0.00 | 0.00 | 0.00 | 63 | 1013.8 |
| 20260507153357 | 12 | 100 | 4.8 | 11.3 | 0.00 | 0.00 | 0.00 | 63 | 1013.9 |
| 20260507152858 | 12 | 104 | 4.8 | 11.3 | 0.00 | 0.00 | 0.00 | 64 | 1013.9 |